sensor_id;sensor_type;location;lat;lon;timestamp;pressure;altitude;pressure_sealevel;temperature;humidity
41898;BME280;27576;53.366;-1.498;2023-10-08T00:00:47;100948.72;;;17.34;100.00
41898;BME280;27576;53.366;-1.498;2023-10-08T00:03:15;100945.22;;;17.32;100.00
41898;BME280;27576;53.366;-1.498;2023-10-08T00:05:46;100934.75;;;17.29;100.00
41898;BME280;27576;53.366;-1.498;2023-10-08T00:08:11;100935.66;;;17.28;100.00
41898;BME280;27576;53.366;-1.498;2023-10-08T00:10:41;100933.91;;;17.27;100.00
41898;BME280;27576;53.366;-1.498;2023-10-08T00:13:11;100927.84;;;17.22;100.00
41898;BME280;27576;53.366;-1.498;2023-10-08T00:15:39;100940.03;;;17.26;100.00
41898;BME280;27576;53.366;-1.498;2023-10-08T00:18:15;100934.81;;;17.20;100.00
41898;BME280;27576;53.366;-1.498;2023-10-08T00:20:42;100911.34;;;17.04;100.00
41898;BME280;27576;53.366;-1.498;2023-10-08T00:23:12;100917.47;;;17.03;100.00
41898;BME280;27576;53.366;-1.498;2023-10-08T00:25:37;100907.00;;;16.97;100.00
41898;BME280;27576;53.366;-1.498;2023-10-08T00:28:08;100948.81;;;17.15;100.00
41898;BME280;27576;53.366;-1.498;2023-10-08T00:30:41;100962.78;;;17.14;100.00
41898;BME280;27576;53.366;-1.498;2023-10-08T00:33:07;100940.19;;;16.93;100.00
41898;BME280;27576;53.366;-1.498;2023-10-08T00:35:37;100954.13;;;16.97;100.00
41898;BME280;27576;53.366;-1.498;2023-10-08T00:38:03;100965.50;;;16.96;100.00
41898;BME280;27576;53.366;-1.498;2023-10-08T00:40:37;100996.00;;;17.06;100.00
41898;BME280;27576;53.366;-1.498;2023-10-08T00:43:04;100972.53;;;16.83;100.00
41898;BME280;27576;53.366;-1.498;2023-10-08T00:45:37;101011.75;;;17.02;100.00
41898;BME280;27576;53.366;-1.498;2023-10-08T00:48:09;101015.22;;;16.99;100.00
41898;BME280;27576;53.366;-1.498;2023-10-08T00:50:42;101002.16;;;16.88;100.00
41898;BME280;27576;53.366;-1.498;2023-10-08T00:53:09;101017.84;;;16.93;100.00
41898;BME280;27576;53.366;-1.498;2023-10-08T00:55:38;101030.09;;;16.91;100.00
41898;BME280;27576;53.366;-1.498;2023-10-08T00:58:05;101032.72;;;16.88;100.00
41898;BME280;27576;53.366;-1.498;2023-10-08T01:00:36;101024.03;;;16.86;100.00
41898;BME280;27576;53.366;-1.498;2023-10-08T01:03:05;101022.25;;;16.85;100.00
41898;BME280;27576;53.366;-1.498;2023-10-08T01:05:40;101026.63;;;16.84;100.00
41898;BME280;27576;53.366;-1.498;2023-10-08T01:08:13;101024.03;;;16.80;100.00
41898;BME280;27576;53.366;-1.498;2023-10-08T01:10:44;101025.75;;;16.78;100.00
41898;BME280;27576;53.366;-1.498;2023-10-08T01:13:12;100996.13;;;16.54;100.00
41898;BME280;27576;53.366;-1.498;2023-10-08T01:15:41;101022.25;;;16.73;100.00
41898;BME280;27576;53.366;-1.498;2023-10-08T01:18:09;101029.25;;;16.71;100.00
41898;BME280;27576;53.366;-1.498;2023-10-08T01:20:44;101002.22;;;16.58;100.00
41898;BME280;27576;53.366;-1.498;2023-10-08T01:23:12;101033.59;;;16.68;100.00
41898;BME280;27576;53.366;-1.498;2023-10-08T01:25:42;101029.25;;;16.67;100.00
41898;BME280;27576;53.366;-1.498;2023-10-08T01:28:09;101029.25;;;16.67;100.00
41898;BME280;27576;53.366;-1.498;2023-10-08T01:30:57;101010.09;;;16.53;100.00
41898;BME280;27576;53.366;-1.498;2023-10-08T01:33:25;101022.28;;;16.60;100.00
41898;BME280;27576;53.366;-1.498;2023-10-08T01:36:02;101027.53;;;16.63;100.00
41898;BME280;27576;53.366;-1.498;2023-10-08T01:38:32;101025.78;;;16.62;100.00
41898;BME280;27576;53.366;-1.498;2023-10-08T01:41:00;101013.56;;;16.61;100.00
41898;BME280;27576;53.366;-1.498;2023-10-08T01:43:28;101011.81;;;16.60;100.00
41898;BME280;27576;53.366;-1.498;2023-10-08T01:45:55;101001.34;;;16.57;100.00
41898;BME280;27576;53.366;-1.498;2023-10-08T01:48:20;101008.31;;;16.58;100.00
41898;BME280;27576;53.366;-1.498;2023-10-08T01:50:56;101015.31;;;16.56;100.00
41898;BME280;27576;53.366;-1.498;2023-10-08T01:53:26;101014.47;;;16.48;100.00
41898;BME280;27576;53.366;-1.498;2023-10-08T01:55:52;100995.28;;;16.34;100.00
41898;BME280;27576;53.366;-1.498;2023-10-08T01:58:19;101016.22;;;16.44;100.00
41898;BME280;27576;53.366;-1.498;2023-10-08T02:00:45;101028.41;;;16.45;100.00
41898;BME280;27576;53.366;-1.498;2023-10-08T02:03:15;101024.06;;;16.44;100.00
41898;BME280;27576;53.366;-1.498;2023-10-08T02:05:50;101029.31;;;16.43;100.00
41898;BME280;27576;53.366;-1.498;2023-10-08T02:08:19;101025.81;;;16.41;100.00
41898;BME280;27576;53.366;-1.498;2023-10-08T02:10:45;101013.59;;;16.40;100.00
41898;BME280;27576;53.366;-1.498;2023-10-08T02:13:13;101005.75;;;16.29;100.00
41898;BME280;27576;53.366;-1.498;2023-10-08T02:15:50;101020.56;;;16.38;100.00
41898;BME280;27576;53.366;-1.498;2023-10-08T02:18:19;101019.72;;;16.36;100.00
41898;BME280;27576;53.366;-1.498;2023-10-08T02:20:45;101011.88;;;16.36;100.00
41898;BME280;27576;53.366;-1.498;2023-10-08T02:23:11;101017.97;;;16.36;100.00
41898;BME280;27576;53.366;-1.498;2023-10-08T02:25:37;101009.25;;;16.37;100.00
41898;BME280;27576;53.366;-1.498;2023-10-08T02:28:08;101005.78;;;16.32;100.00
41898;BME280;27576;53.366;-1.498;2023-10-08T02:30:41;101007.50;;;16.36;100.00
41898;BME280;27576;53.366;-1.498;2023-10-08T02:33:07;100984.00;;;16.27;100.00
41898;BME280;27576;53.366;-1.498;2023-10-08T02:35:40;100996.19;;;16.36;100.00
41898;BME280;27576;53.366;-1.498;2023-10-08T02:38:08;101001.41;;;16.33;100.00
41898;BME280;27576;53.366;-1.498;2023-10-08T02:40:34;101008.38;;;16.32;100.00
41898;BME280;27576;53.366;-1.498;2023-10-08T02:43:02;100977.91;;;16.16;100.00
41898;BME280;27576;53.366;-1.498;2023-10-08T02:45:31;100998.81;;;16.24;100.00
41898;BME280;27576;53.366;-1.498;2023-10-08T02:47:56;100978.75;;;16.10;100.00
41898;BME280;27576;53.366;-1.498;2023-10-08T02:50:22;101011.88;;;16.20;100.00
41898;BME280;27576;53.366;-1.498;2023-10-08T02:52:51;101011.88;;;16.17;100.00
41898;BME280;27576;53.366;-1.498;2023-10-08T02:55:17;101006.66;;;16.13;100.00
41898;BME280;27576;53.366;-1.498;2023-10-08T02:57:54;101010.16;;;16.07;100.00
41898;BME280;27576;53.366;-1.498;2023-10-08T03:00:19;101018.84;;;16.06;100.00
41898;BME280;27576;53.366;-1.498;2023-10-08T03:02:46;101000.56;;;15.92;100.00
41898;BME280;27576;53.366;-1.498;2023-10-08T03:05:12;101026.69;;;16.03;100.00
41898;BME280;27576;53.366;-1.498;2023-10-08T03:07:42;101027.56;;;16.02;100.00
41898;BME280;27576;53.366;-1.498;2023-10-08T03:10:08;101005.75;;;15.79;100.00
41898;BME280;27576;53.366;-1.498;2023-10-08T03:12:49;101005.75;;;15.79;100.00
41898;BME280;27576;53.366;-1.498;2023-10-08T03:15:15;101021.47;;;15.88;100.00
41898;BME280;27576;53.366;-1.498;2023-10-08T03:17:54;101038.88;;;15.98;100.00
41898;BME280;27576;53.366;-1.498;2023-10-08T03:20:23;101011.00;;;15.85;100.00
41898;BME280;27576;53.366;-1.498;2023-10-08T03:23:05;101035.41;;;15.94;100.00
41898;BME280;27576;53.366;-1.498;2023-10-08T03:25:38;101038.88;;;15.93;100.00
41898;BME280;27576;53.366;-1.498;2023-10-08T03:28:09;101033.66;;;15.92;100.00
41898;BME280;27576;53.366;-1.498;2023-10-08T03:30:38;101009.25;;;15.78;100.00
41898;BME280;27576;53.366;-1.498;2023-10-08T03:33:15;101025.81;;;15.89;100.00
41898;BME280;27576;53.366;-1.498;2023-10-08T03:35:48;101031.06;;;15.92;100.00
41898;BME280;27576;53.366;-1.498;2023-10-08T03:38:15;101025.81;;;15.89;100.00
41898;BME280;27576;53.366;-1.498;2023-10-08T03:40:47;101018.84;;;15.85;100.00
41898;BME280;27576;53.366;-1.498;2023-10-08T03:43:15;101048.47;;;16.01;100.00
41898;BME280;27576;53.366;-1.498;2023-10-08T03:45:49;101031.91;;;15.91;100.00
41898;BME280;27576;53.366;-1.498;2023-10-08T03:48:19;101038.03;;;16.02;100.00
41898;BME280;27576;53.366;-1.498;2023-10-08T03:50:48;101010.13;;;15.86;100.00
41898;BME280;27576;53.366;-1.498;2023-10-08T03:53:22;101022.34;;;15.93;100.00
41898;BME280;27576;53.366;-1.498;2023-10-08T03:55:48;101025.81;;;15.95;100.00
41898;BME280;27576;53.366;-1.498;2023-10-08T03:58:17;101017.97;;;15.87;100.00
41898;BME280;27576;53.366;-1.498;2023-10-08T04:00:54;101040.63;;;15.93;100.00
41898;BME280;27576;53.366;-1.498;2023-10-08T04:03:36;101038.88;;;15.93;100.00
41898;BME280;27576;53.366;-1.498;2023-10-08T04:06:26;101036.28;;;15.92;100.00
41898;BME280;27576;53.366;-1.498;2023-10-08T04:09:01;101010.13;;;15.75;100.00
41898;BME280;27576;53.366;-1.498;2023-10-08T04:11:39;101031.91;;;15.89;100.00
41898;BME280;27576;53.366;-1.498;2023-10-08T04:14:24;101044.97;;;15.91;100.00
41898;BME280;27576;53.366;-1.498;2023-10-08T04:16:51;101041.50;;;15.92;100.00
41898;BME280;27576;53.366;-1.498;2023-10-08T04:19:17;101050.19;;;15.91;100.00
41898;BME280;27576;53.366;-1.498;2023-10-08T04:21:43;101028.41;;;15.78;100.00
41898;BME280;27576;53.366;-1.498;2023-10-08T04:24:09;101031.00;;;15.80;100.00
41898;BME280;27576;53.366;-1.498;2023-10-08T04:26:35;101029.31;;;15.88;100.00
41898;BME280;27576;53.366;-1.498;2023-10-08T04:29:02;101033.66;;;15.92;100.00
41898;BME280;27576;53.366;-1.498;2023-10-08T04:31:31;101041.50;;;15.92;100.00
41898;BME280;27576;53.366;-1.498;2023-10-08T04:34:09;101049.34;;;15.89;100.00
41898;BME280;27576;53.366;-1.498;2023-10-08T04:36:44;101043.25;;;15.88;100.00
41898;BME280;27576;53.366;-1.498;2023-10-08T04:39:19;101039.75;;;15.89;100.00
41898;BME280;27576;53.366;-1.498;2023-10-08T04:41:51;101031.03;;;15.77;100.00
41898;BME280;27576;53.366;-1.498;2023-10-08T04:44:19;101041.50;;;15.89;100.00
41898;BME280;27576;53.366;-1.498;2023-10-08T04:46:47;101045.88;;;15.88;100.00
41898;BME280;27576;53.366;-1.498;2023-10-08T04:49:17;101024.91;;;15.75;100.00
41898;BME280;27576;53.366;-1.498;2023-10-08T04:51:58;101051.06;;;15.87;100.00
41898;BME280;27576;53.366;-1.498;2023-10-08T04:54:25;101043.25;;;15.81;100.00
41898;BME280;27576;53.366;-1.498;2023-10-08T04:56:55;101043.25;;;15.81;100.00
41898;BME280;27576;53.366;-1.498;2023-10-08T04:59:22;101031.00;;;15.80;100.00
41898;BME280;27576;53.366;-1.498;2023-10-08T05:01:48;101029.28;;;15.79;100.00
41898;BME280;27576;53.366;-1.498;2023-10-08T05:04:14;101025.81;;;15.77;100.00
41898;BME280;27576;53.366;-1.498;2023-10-08T05:06:49;101022.31;;;15.73;100.00
41898;BME280;27576;53.366;-1.498;2023-10-08T05:09:14;100993.53;;;15.56;100.00
41898;BME280;27576;53.366;-1.498;2023-10-08T05:11:47;101025.81;;;15.72;100.00
41898;BME280;27576;53.366;-1.498;2023-10-08T05:14:19;101014.47;;;15.67;100.00
41898;BME280;27576;53.366;-1.498;2023-10-08T05:16:57;101014.44;;;15.56;100.00
41898;BME280;27576;53.366;-1.498;2023-10-08T05:19:31;101042.34;;;15.68;100.00
41898;BME280;27576;53.366;-1.498;2023-10-08T05:22:08;101030.97;;;15.61;100.00
41898;BME280;27576;53.366;-1.498;2023-10-08T05:24:48;101044.94;;;15.66;100.00
41898;BME280;27576;53.366;-1.498;2023-10-08T05:27:43;101022.25;;;15.53;100.00
41898;BME280;27576;53.366;-1.498;2023-10-08T05:30:15;101044.91;;;15.63;100.00
41898;BME280;27576;53.366;-1.498;2023-10-08T05:32:57;101039.66;;;15.63;100.00
41898;BME280;27576;53.366;-1.498;2023-10-08T05:35:32;101017.88;;;15.52;100.00
41898;BME280;27576;53.366;-1.498;2023-10-08T05:38:15;101031.84;;;15.62;100.00
41898;BME280;27576;53.366;-1.498;2023-10-08T05:40:57;101020.53;;;15.64;100.00
41898;BME280;27576;53.366;-1.498;2023-10-08T05:43:28;101022.25;;;15.64;100.00
41898;BME280;27576;53.366;-1.498;2023-10-08T05:46:12;101027.47;;;15.62;100.00
41898;BME280;27576;53.366;-1.498;2023-10-08T05:48:58;101013.53;;;15.54;100.00
41898;BME280;27576;53.366;-1.498;2023-10-08T05:51:37;101007.47;;;15.57;100.00
41898;BME280;27576;53.366;-1.498;2023-10-08T05:54:19;101012.66;;;15.60;100.00
41898;BME280;27576;53.366;-1.498;2023-10-08T05:57:08;101007.44;;;15.58;100.00
41898;BME280;27576;53.366;-1.498;2023-10-08T06:02:28;100996.13;;;15.45;100.00
41898;BME280;27576;53.366;-1.498;2023-10-08T06:05:07;101016.16;;;15.53;100.00
41898;BME280;27576;53.366;-1.498;2023-10-08T06:07:42;101015.28;;;15.51;100.00
41898;BME280;27576;53.366;-1.498;2023-10-08T06:10:28;101010.00;;;15.40;100.00
41898;BME280;27576;53.366;-1.498;2023-10-08T06:15:39;101005.66;;;15.34;100.00
41898;BME280;27576;53.366;-1.498;2023-10-08T06:18:19;101005.66;;;15.40;100.00
41898;BME280;27576;53.366;-1.498;2023-10-08T06:20:49;101022.22;;;15.50;100.00
41898;BME280;27576;53.366;-1.498;2023-10-08T06:23:20;101016.13;;;15.45;100.00
41898;BME280;27576;53.366;-1.498;2023-10-08T06:25:46;101033.56;;;15.49;100.00
41898;BME280;27576;53.366;-1.498;2023-10-08T06:28:16;101023.94;;;15.43;100.00
41898;BME280;27576;53.366;-1.498;2023-10-08T06:30:46;101019.59;;;15.39;100.00
41898;BME280;27576;53.366;-1.498;2023-10-08T06:33:12;101008.28;;;15.42;100.00
41898;BME280;27576;53.366;-1.498;2023-10-08T06:35:38;101017.00;;;15.47;100.00
41898;BME280;27576;53.366;-1.498;2023-10-08T06:38:09;101006.53;;;15.35;100.00
41898;BME280;27576;53.366;-1.498;2023-10-08T06:40:36;101030.03;;;15.44;100.00
41898;BME280;27576;53.366;-1.498;2023-10-08T06:43:01;101030.03;;;15.44;100.00
41898;BME280;27576;53.366;-1.498;2023-10-08T06:45:41;101027.44;;;15.45;100.00
41898;BME280;27576;53.366;-1.498;2023-10-08T06:48:07;101018.72;;;15.39;100.00
41898;BME280;27576;53.366;-1.498;2023-10-08T06:50:33;101012.66;;;15.46;100.00
41898;BME280;27576;53.366;-1.498;2023-10-08T06:53:04;101020.47;;;15.46;100.00
41898;BME280;27576;53.366;-1.498;2023-10-08T06:55:33;101005.69;;;15.42;100.00
41898;BME280;27576;53.366;-1.498;2023-10-08T06:58:01;100951.66;;;15.13;100.00
41898;BME280;27576;53.366;-1.498;2023-10-08T07:00:34;101001.31;;;15.44;100.00
41898;BME280;27576;53.366;-1.498;2023-10-08T07:03:08;101000.47;;;15.46;100.00
41898;BME280;27576;53.366;-1.498;2023-10-08T07:05:40;100998.72;;;15.47;100.00
41898;BME280;27576;53.366;-1.498;2023-10-08T07:08:07;100994.34;;;15.43;100.00
41898;BME280;27576;53.366;-1.498;2023-10-08T07:10:33;100971.72;;;15.34;100.00
41898;BME280;27576;53.366;-1.498;2023-10-08T07:13:02;100989.13;;;15.37;100.00
41898;BME280;27576;53.366;-1.498;2023-10-08T07:15:33;101004.81;;;15.46;100.00
41898;BME280;27576;53.366;-1.498;2023-10-08T07:18:04;101006.53;;;15.44;100.00
41898;BME280;27576;53.366;-1.498;2023-10-08T07:20:39;101011.75;;;15.38;100.00
41898;BME280;27576;53.366;-1.498;2023-10-08T07:23:08;101004.75;;;15.32;100.00
41898;BME280;27576;53.366;-1.498;2023-10-08T07:25:54;101016.09;;;15.30;100.00
41898;BME280;27576;53.366;-1.498;2023-10-08T07:28:27;101014.31;;;15.29;100.00
41898;BME280;27576;53.366;-1.498;2023-10-08T07:30:54;101021.28;;;15.28;100.00
41898;BME280;27576;53.366;-1.498;2023-10-08T07:33:20;101027.38;;;15.26;100.00
41898;BME280;27576;53.366;-1.498;2023-10-08T07:35:51;101016.88;;;15.12;100.00
41898;BME280;27576;53.366;-1.498;2023-10-08T07:38:40;101016.00;;;15.13;100.00
41898;BME280;27576;53.366;-1.498;2023-10-08T07:41:10;101019.53;;;15.13;100.00
41898;BME280;27576;53.366;-1.498;2023-10-08T07:43:45;101040.41;;;15.24;100.00
41898;BME280;27576;53.366;-1.498;2023-10-08T07:46:37;101036.09;;;15.28;100.00
41898;BME280;27576;53.366;-1.498;2023-10-08T07:49:02;101039.53;;;15.20;100.00
41898;BME280;27576;53.366;-1.498;2023-10-08T07:51:29;101017.75;;;15.09;100.00
41898;BME280;27576;53.366;-1.498;2023-10-08T07:53:54;101037.81;;;15.18;100.00
41898;BME280;27576;53.366;-1.498;2023-10-08T07:56:21;101034.31;;;15.16;100.00
41898;BME280;27576;53.366;-1.498;2023-10-08T07:58:47;101044.78;;;15.23;100.00
41898;BME280;27576;53.366;-1.498;2023-10-08T08:01:13;101027.34;;;15.19;100.00
41898;BME280;27576;53.366;-1.498;2023-10-08T08:03:40;101030.84;;;15.21;100.00
41898;BME280;27576;53.366;-1.498;2023-10-08T08:06:07;101009.09;;;15.18;100.00
41898;BME280;27576;53.366;-1.498;2023-10-08T08:08:37;101012.59;;;15.28;100.00
41898;BME280;27576;53.366;-1.498;2023-10-08T08:11:03;101013.47;;;15.30;100.00
41898;BME280;27576;53.366;-1.498;2023-10-08T08:13:33;101030.94;;;15.44;100.00
41898;BME280;27576;53.366;-1.498;2023-10-08T08:16:00;101029.19;;;15.50;100.00
41898;BME280;27576;53.366;-1.498;2023-10-08T08:18:36;101012.66;;;15.54;100.00
41898;BME280;27576;53.366;-1.498;2023-10-08T08:21:02;100992.59;;;15.43;100.00
41898;BME280;27576;53.366;-1.498;2023-10-08T08:23:29;101020.50;;;15.55;100.00
41898;BME280;27576;53.366;-1.498;2023-10-08T08:25:55;101003.06;;;15.51;100.00
41898;BME280;27576;53.366;-1.498;2023-10-08T08:28:32;100985.66;;;15.38;100.00
41898;BME280;27576;53.366;-1.498;2023-10-08T08:31:02;101020.50;;;15.55;100.00
41898;BME280;27576;53.366;-1.498;2023-10-08T08:33:30;101017.03;;;15.59;100.00
41898;BME280;27576;53.366;-1.498;2023-10-08T08:36:16;101020.53;;;15.61;100.00
41898;BME280;27576;53.366;-1.498;2023-10-08T08:38:41;101033.63;;;15.66;100.00
41898;BME280;27576;53.366;-1.498;2023-10-08T08:41:07;101030.16;;;15.68;100.00
41898;BME280;27576;53.366;-1.498;2023-10-08T08:43:36;101036.25;;;15.74;100.00
41898;BME280;27576;53.366;-1.498;2023-10-08T08:46:05;101036.25;;;15.78;100.00
41898;BME280;27576;53.366;-1.498;2023-10-08T08:48:33;101036.25;;;15.80;100.00
41898;BME280;27576;53.366;-1.498;2023-10-08T08:51:00;101043.22;;;15.79;100.00
41898;BME280;27576;53.366;-1.498;2023-10-08T08:53:25;101029.28;;;15.82;100.00
41898;BME280;27576;53.366;-1.498;2023-10-08T08:55:53;101030.16;;;15.91;100.00
41898;BME280;27576;53.366;-1.498;2023-10-08T08:58:20;101029.31;;;16.00;100.00
41898;BME280;27576;53.366;-1.498;2023-10-08T09:00:47;101039.75;;;16.06;100.00
41898;BME280;27576;53.366;-1.498;2023-10-08T09:03:12;100998.81;;;15.88;100.00
41898;BME280;27576;53.366;-1.498;2023-10-08T09:05:39;101027.59;;;16.11;100.00
41898;BME280;27576;53.366;-1.498;2023-10-08T09:08:06;101038.00;;;16.19;100.00
41898;BME280;27576;53.366;-1.498;2023-10-08T09:10:34;101047.59;;;16.18;100.00
41898;BME280;27576;53.366;-1.498;2023-10-08T09:13:04;101032.78;;;16.02;100.00
41898;BME280;27576;53.366;-1.498;2023-10-08T09:15:30;101054.56;;;16.15;100.00
41898;BME280;27576;53.366;-1.498;2023-10-08T09:17:58;101043.28;;;16.11;100.00
41898;BME280;27576;53.366;-1.498;2023-10-08T09:20:29;101065.94;;;16.25;100.00
41898;BME280;27576;53.366;-1.498;2023-10-08T09:25:33;101056.34;;;16.31;100.00
41898;BME280;27576;53.366;-1.498;2023-10-08T09:27:58;101035.41;;;16.36;100.00
41898;BME280;27576;53.366;-1.498;2023-10-08T09:30:24;101004.03;;;16.39;100.00
41898;BME280;27576;53.366;-1.498;2023-10-08T09:32:51;101023.22;;;16.39;100.00
41898;BME280;27576;53.366;-1.498;2023-10-08T09:35:17;100985.72;;;16.22;100.00
41898;BME280;27576;53.366;-1.498;2023-10-08T09:37:44;101009.25;;;16.47;100.00
41898;BME280;27576;53.366;-1.498;2023-10-08T09:40:11;100984.84;;;16.40;100.00
41898;BME280;27576;53.366;-1.498;2023-10-08T09:42:41;101004.88;;;16.52;100.00
41898;BME280;27576;53.366;-1.498;2023-10-08T09:45:07;101013.56;;;16.64;100.00
41898;BME280;27576;53.366;-1.498;2023-10-08T09:47:36;101017.03;;;16.69;100.00
41898;BME280;27576;53.366;-1.498;2023-10-08T09:50:04;100989.16;;;16.75;100.00
41898;BME280;27576;53.366;-1.498;2023-10-08T09:55:22;101011.72;;;16.97;100.00
41898;BME280;27576;53.366;-1.498;2023-10-08T09:57:48;100991.72;;;16.87;100.00
41898;BME280;27576;53.366;-1.498;2023-10-08T10:00:16;101022.16;;;17.12;100.00
41898;BME280;27576;53.366;-1.498;2023-10-08T10:02:44;101003.00;;;17.01;100.00
41898;BME280;27576;53.366;-1.498;2023-10-08T10:05:11;101016.06;;;17.13;100.00
41898;BME280;27576;53.366;-1.498;2023-10-08T10:07:37;101029.88;;;17.43;100.00
41898;BME280;27576;53.366;-1.498;2023-10-08T10:10:08;101027.22;;;17.46;100.00
41898;BME280;27576;53.366;-1.498;2023-10-08T10:12:51;101034.25;;;17.41;100.00
41898;BME280;27576;53.366;-1.498;2023-10-08T10:15:19;101034.25;;;17.36;100.00
41898;BME280;27576;53.366;-1.498;2023-10-08T10:17:46;101002.94;;;17.16;100.00
41898;BME280;27576;53.366;-1.498;2023-10-08T10:20:12;101027.28;;;17.32;100.00
41898;BME280;27576;53.366;-1.498;2023-10-08T10:22:39;101014.28;;;17.22;100.00
41898;BME280;27576;53.366;-1.498;2023-10-08T10:25:07;101036.00;;;17.42;100.00
41898;BME280;27576;53.366;-1.498;2023-10-08T10:30:33;101015.69;;;17.72;100.00
41898;BME280;27576;53.366;-1.498;2023-10-08T10:33:02;101006.09;;;17.74;100.00
41898;BME280;27576;53.366;-1.498;2023-10-08T10:35:31;101024.28;;;18.00;100.00
41898;BME280;27576;53.366;-1.498;2023-10-08T10:37:58;101003.31;;;17.98;100.00
41898;BME280;27576;53.366;-1.498;2023-10-08T10:40:28;101010.19;;;18.13;100.00
41898;BME280;27576;53.366;-1.498;2023-10-08T10:42:58;101005.78;;;18.15;100.00
41898;BME280;27576;53.366;-1.498;2023-10-08T10:45:29;101004.13;;;18.03;100.00
41898;BME280;27576;53.366;-1.498;2023-10-08T10:48:20;101005.09;;;17.96;100.00
41898;BME280;27576;53.366;-1.498;2023-10-08T10:50:47;101004.25;;;17.91;100.00
41898;BME280;27576;53.366;-1.498;2023-10-08T10:53:37;101000.75;;;17.90;100.00
41898;BME280;27576;53.366;-1.498;2023-10-08T10:56:26;100990.22;;;17.95;100.00
41898;BME280;27576;53.366;-1.498;2023-10-08T10:59:04;100983.28;;;17.88;100.00
41898;BME280;27576;53.366;-1.498;2023-10-08T11:01:49;100983.31;;;17.86;100.00
41898;BME280;27576;53.366;-1.498;2023-10-08T11:04:18;100951.97;;;17.66;100.00
41898;BME280;27576;53.366;-1.498;2023-10-08T11:06:47;100992.97;;;17.81;100.00
41898;BME280;27576;53.366;-1.498;2023-10-08T11:09:12;101001.72;;;17.79;100.00
41898;BME280;27576;53.366;-1.498;2023-10-08T11:11:46;100999.09;;;17.79;100.00
41898;BME280;27576;53.366;-1.498;2023-10-08T11:14:19;100991.25;;;17.77;100.00
41898;BME280;27576;53.366;-1.498;2023-10-08T11:16:47;100990.34;;;17.84;100.00
41898;BME280;27576;53.366;-1.498;2023-10-08T11:19:13;100982.28;;;18.03;100.00
41898;BME280;27576;53.366;-1.498;2023-10-08T11:21:50;100982.13;;;18.24;100.00
41898;BME280;27576;53.366;-1.498;2023-10-08T11:24:29;100974.03;;;18.44;100.00
41898;BME280;27576;53.366;-1.498;2023-10-08T11:26:59;100975.38;;;18.82;100.00
41898;BME280;27576;53.366;-1.498;2023-10-08T11:29:47;100965.94;;;19.35;100.00
41898;BME280;27576;53.366;-1.498;2023-10-08T11:32:14;100964.25;;;19.88;100.00
41898;BME280;27576;53.366;-1.498;2023-10-08T11:34:46;100944.50;;;20.15;100.00
41898;BME280;27576;53.366;-1.498;2023-10-08T11:37:26;100957.28;;;20.35;100.00
41898;BME280;27576;53.366;-1.498;2023-10-08T11:39:51;100947.31;;;20.54;100.00
41898;BME280;27576;53.366;-1.498;2023-10-08T11:42:18;100936.38;;;20.74;100.00
41898;BME280;27576;53.366;-1.498;2023-10-08T11:44:59;100946.16;;;21.11;100.00
41898;BME280;27576;53.366;-1.498;2023-10-08T11:47:25;100942.03;;;21.38;100.00
41898;BME280;27576;53.366;-1.498;2023-10-08T11:49:56;100929.66;;;21.77;100.00
41898;BME280;27576;53.366;-1.498;2023-10-08T11:52:42;100924.06;;;22.23;100.00
41898;BME280;27576;53.366;-1.498;2023-10-08T11:55:09;100912.78;;;22.49;100.00
41898;BME280;27576;53.366;-1.498;2023-10-08T11:57:39;100916.00;;;22.90;100.00
41898;BME280;27576;53.366;-1.498;2023-10-08T12:00:12;100913.38;;;23.20;100.00
41898;BME280;27576;53.366;-1.498;2023-10-08T12:02:53;100929.13;;;23.51;100.00
41898;BME280;27576;53.366;-1.498;2023-10-08T12:05:20;100922.63;;;23.88;97.93
41898;BME280;27576;53.366;-1.498;2023-10-08T12:07:46;100920.47;;;24.24;97.41
41898;BME280;27576;53.366;-1.498;2023-10-08T12:10:12;100914.34;;;24.48;93.30
41898;BME280;27576;53.366;-1.498;2023-10-08T12:12:37;100908.44;;;24.64;89.61
41898;BME280;27576;53.366;-1.498;2023-10-08T12:15:03;100904.94;;;24.63;90.22
41898;BME280;27576;53.366;-1.498;2023-10-08T12:17:29;100922.81;;;24.82;88.58
41898;BME280;27576;53.366;-1.498;2023-10-08T12:20:05;100912.03;;;24.86;84.95
41898;BME280;27576;53.366;-1.498;2023-10-08T12:22:50;100900.34;;;24.68;85.50
41898;BME280;27576;53.366;-1.498;2023-10-08T12:25:16;100909.28;;;24.66;87.21
41898;BME280;27576;53.366;-1.498;2023-10-08T12:27:41;100884.56;;;24.42;87.52
41898;BME280;27576;53.366;-1.498;2023-10-08T12:30:07;100910.22;;;24.40;88.52
41898;BME280;27576;53.366;-1.498;2023-10-08T12:32:38;100908.25;;;24.20;86.90
41898;BME280;27576;53.366;-1.498;2023-10-08T12:35:10;100902.91;;;23.96;88.80
41898;BME280;27576;53.366;-1.498;2023-10-08T12:37:41;100881.91;;;23.67;90.42
41898;BME280;27576;53.366;-1.498;2023-10-08T12:40:09;100880.03;;;23.42;93.07
41898;BME280;27576;53.366;-1.498;2023-10-08T12:42:48;100863.41;;;23.11;91.19
41898;BME280;27576;53.366;-1.498;2023-10-08T12:45:13;100874.50;;;22.94;90.24
41898;BME280;27576;53.366;-1.498;2023-10-08T12:47:38;100857.34;;;22.49;90.55
41898;BME280;27576;53.366;-1.498;2023-10-08T12:50:05;100877.19;;;22.33;91.86
41898;BME280;27576;53.366;-1.498;2023-10-08T12:52:33;100870.78;;;22.08;93.78
41898;BME280;27576;53.366;-1.498;2023-10-08T12:55:01;100858.47;;;21.75;94.12
41898;BME280;27576;53.366;-1.498;2023-10-08T12:57:31;100867.50;;;21.65;95.65
41898;BME280;27576;53.366;-1.498;2023-10-08T12:59:59;100877.44;;;21.55;95.87
41898;BME280;27576;53.366;-1.498;2023-10-08T13:02:25;100848.16;;;21.30;97.63